Time;durP1;ratioP1;P1;durP2;ratioP2;P2;SDS_P1;SDS_P2;PMS_P1;PMS_P2;Temp;Humidity;BMP_temperature;BMP_pressure;BME280_temperature;BME280_humidity;BME280_pressure;Samples;Min_cycle;Max_cycle;Signal;HPM_P1;HPM_P2
2022/08/26 00:00:28;;;;;;;4.87;3.80;;;19.20;99.90;;;;;;5025276;28;20461;-93
2022/08/26 00:02:55;;;;;;;4.93;4.50;;;19.10;99.90;;;;;;5024889;28;20577;-93
2022/08/26 00:05:22;;;;;;;3.90;3.60;;;19.10;99.90;;;;;;5024703;28;20465;-92
2022/08/26 00:07:49;;;;;;;4.03;3.73;;;19.10;99.90;;;;;;5025865;28;20954;-93
2022/08/26 00:10:16;;;;;;;3.43;3.13;;;19.10;99.90;;;;;;5028874;28;20461;-93
2022/08/26 00:12:43;;;;;;;4.23;3.90;;;19.00;99.90;;;;;;5032383;28;20481;-92
2022/08/26 00:15:13;;;;;;;4.10;3.80;;;19.00;99.90;;;;;;5039098;28;20465;-94
2022/08/26 00:17:41;;;;;;;3.70;3.40;;;19.00;99.90;;;;;;5039439;28;20458;-95
2022/08/26 00:20:10;;;;;;;3.77;3.47;;;18.90;99.90;;;;;;5039597;28;20505;-94
2022/08/26 00:22:37;;;;;;;3.80;3.40;;;18.90;99.90;;;;;;5038441;28;20482;-95
2022/08/26 00:25:04;;;;;;;4.20;3.80;;;18.90;99.90;;;;;;5025674;28;20512;-92
2022/08/26 00:27:32;;;;;;;4.50;3.50;;;18.90;99.90;;;;;;5025076;28;20983;-93
2022/08/26 00:29:59;;;;;;;3.77;3.37;;;18.90;99.90;;;;;;5023892;28;20466;-93
2022/08/26 00:32:26;;;;;;;3.93;3.63;;;18.90;99.90;;;;;;5024051;28;20470;-94
2022/08/26 00:34:54;;;;;;;3.93;3.53;;;18.80;99.90;;;;;;5023121;28;20450;-92
2022/08/26 00:37:21;;;;;;;4.20;3.80;;;18.80;99.90;;;;;;5022706;28;20478;-94
2022/08/26 00:39:48;;;;;;;3.93;3.63;;;18.80;99.90;;;;;;5023189;28;20928;-93
2022/08/26 03:53:55;;;;;;;4.07;3.70;;;17.10;99.90;;;;;;5014897;28;20478;-93
2022/08/26 03:56:22;;;;;;;4.33;3.93;;;17.20;99.90;;;;;;4991891;28;20462;-93
2022/08/26 03:58:49;;;;;;;5.10;3.57;;;17.10;99.90;;;;;;4989890;28;20483;-94
2022/08/26 04:01:16;;;;;;;4.00;3.60;;;17.10;99.90;;;;;;4987438;28;20495;-93
2022/08/26 04:06:25;;;;;;;4.30;3.60;;;17.10;99.90;;;;;;4983933;28;20526;-93
2022/08/26 04:08:53;;;;;;;4.33;3.93;;;17.10;99.90;;;;;;4993937;28;20447;-93
2022/08/26 04:11:24;;;;;;;4.05;3.60;;;17.00;99.90;;;;;;4994492;28;20947;-94
2022/08/26 05:16:02;;;;;;;4.83;4.43;;;17.00;99.90;;;;;;5041619;28;20470;-93
2022/08/26 05:18:30;;;;;;;3.90;3.60;;;17.10;99.90;;;;;;5049085;28;20896;-94
2022/08/26 05:20:57;;;;;;;4.40;3.80;;;17.00;99.90;;;;;;5049536;28;20495;-93
2022/08/26 05:23:25;;;;;;;4.57;4.10;;;17.10;99.90;;;;;;5050109;28;20507;-94
2022/08/26 05:25:54;;;;;;;4.00;3.70;;;17.00;99.90;;;;;;5049731;28;20472;-94
2022/08/26 05:28:21;;;;;;;4.30;3.90;;;17.10;99.90;;;;;;5049728;28;20437;-91
2022/08/26 05:30:50;;;;;;;5.63;5.13;;;17.10;99.90;;;;;;5050166;28;20492;-94
2022/08/26 05:33:19;;;;;;;4.50;4.10;;;17.10;99.90;;;;;;5049416;28;20520;-93
2022/08/26 05:35:47;;;;;;;5.17;4.67;;;17.20;99.90;;;;;;5049535;28;20572;-93
2022/08/26 05:38:17;;;;;;;3.87;3.53;;;17.20;99.90;;;;;;5049790;28;20480;-92
2022/08/26 05:40:48;;;;;;;3.47;3.17;;;17.20;99.90;;;;;;5050300;28;20456;-94
2022/08/26 05:43:16;;;;;;;5.03;4.53;;;17.20;99.90;;;;;;5049741;28;20469;-94
2022/08/26 05:45:45;;;;;;;5.00;4.50;;;17.30;99.90;;;;;;5049160;28;20519;-94
2022/08/26 05:51:02;;;;;;;3.77;3.47;;;17.30;99.90;;;;;;5048691;28;20464;-93
2022/08/26 05:53:28;;;;;;;4.63;4.23;;;17.30;99.90;;;;;;5049322;28;20477;-93
2022/08/26 05:55:56;;;;;;;5.80;4.67;;;17.30;99.90;;;;;;5052232;28;20453;-93
2022/08/26 05:58:31;;;;;;;4.43;4.03;;;17.30;99.90;;;;;;5050330;28;20485;-94
2022/08/26 06:01:44;;;;;;;5.10;4.60;;;17.30;99.90;;;;;;5052109;28;20452;-95
2022/08/26 06:04:11;;;;;;;4.80;4.30;;;17.30;99.90;;;;;;5013285;28;20549;-94
2022/08/26 06:06:40;;;;;;;4.70;4.20;;;17.30;99.90;;;;;;5018337;28;20445;-95
2022/08/26 06:09:09;;;;;;;5.40;3.90;;;17.30;99.90;;;;;;5018516;28;20438;-93
2022/08/26 06:11:36;;;;;;;4.23;3.87;;;17.30;99.90;;;;;;5018072;28;20623;-94
2022/08/26 06:14:04;;;;;;;5.37;3.77;;;17.30;99.90;;;;;;5018207;28;20473;-94
2022/08/26 06:16:33;;;;;;;6.20;4.70;;;17.40;99.90;;;;;;5018819;28;20458;-96
2022/08/26 06:19:02;;;;;;;4.60;4.20;;;17.40;99.90;;;;;;5018913;28;20563;-95
2022/08/26 06:21:32;;;;;;;4.60;3.93;;;17.40;99.90;;;;;;5018819;28;20526;-94
2022/08/26 06:26:49;;;;;;;4.73;4.23;;;17.50;99.90;;;;;;5018899;28;20474;-95
2022/08/26 06:29:16;;;;;;;5.33;4.03;;;17.50;99.90;;;;;;5018995;28;20534;-95
2022/08/26 06:31:43;;;;;;;5.80;4.00;;;17.60;99.90;;;;;;5018910;28;20473;-96
2022/08/26 06:34:10;;;;;;;4.83;4.43;;;17.60;99.90;;;;;;5018587;28;20549;-95
2022/08/26 06:36:38;;;;;;;5.23;4.37;;;17.70;99.90;;;;;;5018625;28;20443;-95
2022/08/26 06:39:08;;;;;;;5.10;4.60;;;17.80;99.90;;;;;;5018271;28;20466;-94
2022/08/26 06:41:36;;;;;;;6.80;5.13;;;17.80;99.90;;;;;;5018529;28;20474;-93
2022/08/26 06:44:05;;;;;;;5.20;4.70;;;17.90;99.90;;;;;;5018160;28;20486;-94
2022/08/26 06:46:32;;;;;;;4.83;4.23;;;18.10;99.90;;;;;;5018730;28;20526;-95
2022/08/26 06:48:59;;;;;;;5.07;4.63;;;18.20;99.90;;;;;;5018558;28;20446;-94
2022/08/26 06:51:29;;;;;;;4.50;4.10;;;18.40;99.90;;;;;;5018429;28;20451;-94
2022/08/26 06:53:58;;;;;;;5.23;4.70;;;18.50;99.90;;;;;;5018332;28;20475;-95
2022/08/26 06:56:28;;;;;;;5.17;4.67;;;18.60;99.90;;;;;;5018224;28;20473;-94
2022/08/26 06:58:55;;;;;;;4.90;4.50;;;18.70;99.90;;;;;;5018279;28;20466;-93
2022/08/26 07:01:25;;;;;;;5.47;4.73;;;18.90;99.90;;;;;;5018175;28;20631;-94
2022/08/26 07:03:54;;;;;;;5.60;5.10;;;19.10;99.90;;;;;;5018009;28;20489;-94
2022/08/26 07:06:22;;;;;;;5.10;4.67;;;19.30;99.90;;;;;;5018077;28;20447;-94
2022/08/26 07:43:04;;;;;;;5.30;4.10;;;21.40;99.90;;;;;;1913615;23;20971;-92
2022/08/26 07:54:16;;;;;;;6.40;4.90;;;22.00;99.90;;;;;;5704826;23;20533;-94
2022/08/26 07:56:59;;;;;;;5.93;3.70;;;22.10;99.90;;;;;;5018366;28;20472;-95
2022/08/26 10:21:55;;;;;;;5.73;4.63;;;27.80;99.90;;;;;;1417999;26;20447;-94
2022/08/26 14:42:37;;;;;;;9.40;6.13;;;23.40;99.90;;;;;;3302233;26;20510;-93
2022/08/26 14:45:14;;;;;;;7.87;5.47;;;23.40;99.90;;;;;;4997475;28;20549;-93
2022/08/26 14:47:41;;;;;;;5.70;5.13;;;23.30;99.90;;;;;;4989349;28;20484;-93
2022/08/26 14:50:08;;;;;;;9.10;5.63;;;23.10;99.90;;;;;;4985406;28;20513;-92
2022/08/26 14:54:10;;;;;;;7.53;5.57;;;22.90;99.90;;;;;;5000384;28;20438;-93
2022/08/26 14:55:21;;;;;;;5.90;5.23;;;22.60;99.90;;;;;;4999629;28;20441;-92
2022/08/26 16:27:12;;;;;;;6.23;5.30;;;21.00;99.90;;;;;;5060925;23;20932;-92
2022/08/26 19:35:04;;;;;;;4.10;3.80;;;19.10;99.90;;;;;;1392569;23;20836;-91
